createdAt,value
2023-04-14T00:00:37.116Z,99264.56
2023-04-14T00:05:52.602Z,99253.00
2023-04-14T00:08:19.174Z,99241.50
2023-04-14T00:10:45.760Z,99240.34
2023-04-14T00:13:12.394Z,99247.16
2023-04-14T00:15:41.755Z,99248.16
2023-04-14T00:18:08.353Z,99238.56
2023-04-14T00:20:35.031Z,99243.06
2023-04-14T00:23:01.579Z,99236.53
2023-04-14T00:25:28.120Z,99246.00
2023-04-14T00:27:54.833Z,99233.19
2023-04-14T00:30:21.482Z,99239.28
2023-04-14T00:32:48.036Z,99246.47
2023-04-14T00:35:14.820Z,99244.41
2023-04-14T00:37:41.447Z,99237.81
2023-04-14T00:40:11.138Z,99236.28
2023-04-14T00:42:47.917Z,99234.38
2023-04-14T00:45:15.394Z,99238.13
2023-04-14T00:47:47.074Z,99237.47
2023-04-14T00:50:18.846Z,99230.63
2023-04-14T00:52:48.573Z,99236.63
2023-04-14T00:55:16.511Z,99238.16
2023-04-14T00:57:43.133Z,99231.00
2023-04-14T01:00:11.762Z,99235.22
2023-04-14T01:02:38.859Z,99228.84
2023-04-14T01:05:06.018Z,99241.28
2023-04-14T01:07:33.233Z,99236.94
2023-04-14T01:10:01.055Z,99239.63
2023-04-14T01:12:39.641Z,99234.84
2023-04-14T01:15:18.344Z,99230.81
2023-04-14T01:17:53.017Z,99233.28
2023-04-14T01:20:29.836Z,99235.41
2023-04-14T01:23:04.535Z,99233.94
2023-04-14T01:25:37.528Z,99236.53
2023-04-14T01:28:36.644Z,99233.75
2023-04-14T01:31:12.432Z,99240.03
2023-04-14T01:33:43.084Z,99242.91
2023-04-14T01:36:16.313Z,99239.41
2023-04-14T01:38:45.413Z,99245.84
2023-04-14T01:41:14.384Z,99246.53
2023-04-14T01:43:45.709Z,99244.75
2023-04-14T01:46:15.665Z,99247.78
2023-04-14T01:48:42.594Z,99248.25
2023-04-14T01:51:12.021Z,99249.34
2023-04-14T01:53:42.996Z,99251.84
2023-04-14T01:56:11.343Z,99251.41
2023-04-14T01:58:39.640Z,99254.91
2023-04-14T02:01:06.755Z,99251.38
2023-04-14T02:03:34.669Z,99249.63
2023-04-14T02:06:03.978Z,99247.72
2023-04-14T02:08:32.947Z,99241.72
2023-04-14T02:11:02.112Z,99236.56
2023-04-14T02:13:30.573Z,99243.03
2023-04-14T02:15:59.165Z,99244.28
2023-04-14T02:18:27.336Z,99231.53
2023-04-14T02:20:57.817Z,99229.72
2023-04-14T02:23:24.355Z,99235.53
2023-04-14T02:26:21.859Z,99237.84
2023-04-14T02:28:58.111Z,99233.81
2023-04-14T02:31:30.315Z,99235.59
2023-04-14T02:34:00.595Z,99234.81
2023-04-14T02:36:38.014Z,99232.84
2023-04-14T02:39:14.480Z,99231.16
2023-04-14T02:41:44.758Z,99231.00
2023-04-14T02:44:19.669Z,99233.69
2023-04-14T02:46:57.408Z,99235.44
2023-04-14T02:49:27.948Z,99230.06
2023-04-14T02:51:57.303Z,99230.84
2023-04-14T02:54:24.793Z,99230.41
2023-04-14T02:56:51.728Z,99221.78
2023-04-14T02:59:19.526Z,99229.31
2023-04-14T03:01:47.947Z,99231.50
2023-04-14T03:04:15.751Z,99234.66
2023-04-14T03:06:43.313Z,99232.75
2023-04-14T03:09:10.734Z,99236.47
2023-04-14T03:11:38.865Z,99242.19
2023-04-14T03:14:06.416Z,99241.94
2023-04-14T03:16:34.702Z,99239.94
2023-04-14T03:19:03.731Z,99235.97
2023-04-14T03:21:31.377Z,99227.25
2023-04-14T03:23:58.912Z,99231.56
2023-04-14T03:26:26.917Z,99227.91
2023-04-14T03:28:54.962Z,99234.84
2023-04-14T03:31:27.737Z,99233.50
2023-04-14T03:33:57.591Z,99231.47
2023-04-14T03:36:26.213Z,99238.97
2023-04-14T03:38:56.021Z,99239.06
2023-04-14T03:41:23.256Z,99232.78
2023-04-14T03:43:54.706Z,99231.41
2023-04-14T03:46:22.083Z,99228.38
2023-04-14T03:48:51.937Z,99226.50
2023-04-14T03:51:20.486Z,99224.25
2023-04-14T03:53:48.316Z,99213.19
2023-04-14T03:56:17.285Z,99213.38
2023-04-14T03:58:49.450Z,99218.06
2023-04-14T04:01:17.867Z,99222.59
2023-04-14T04:03:45.781Z,99214.31
2023-04-14T04:06:12.942Z,99214.53
2023-04-14T04:08:41.700Z,99213.91
2023-04-14T04:11:08.795Z,99219.13
2023-04-14T04:13:37.006Z,99222.22
2023-04-14T04:16:06.790Z,99221.97
2023-04-14T04:18:38.236Z,99220.38
2023-04-14T04:21:06.187Z,99233.75
2023-04-14T04:23:34.719Z,99232.69
2023-04-14T04:26:02.223Z,99226.91
2023-04-14T04:28:28.942Z,99231.50
2023-04-14T04:30:56.530Z,99237.69
2023-04-14T04:33:23.614Z,99248.56
2023-04-14T04:35:51.130Z,99231.50
2023-04-14T04:38:17.695Z,99236.06
2023-04-14T04:40:44.473Z,99231.31
2023-04-14T04:43:11.194Z,99243.41
2023-04-14T04:45:59.187Z,99239.63
2023-04-14T04:48:25.992Z,99232.41
2023-04-14T04:50:52.562Z,99235.09
2023-04-14T04:53:19.217Z,99225.78
2023-04-14T04:55:45.755Z,99230.09
2023-04-14T04:58:12.274Z,99237.69
2023-04-14T05:00:38.914Z,99242.91
2023-04-14T05:03:05.698Z,99235.75
2023-04-14T05:05:38.356Z,99243.22
2023-04-14T05:08:05.298Z,99239.88
2023-04-14T05:10:35.064Z,99232.69
2023-04-14T05:13:01.628Z,99239.06
2023-04-14T05:15:28.306Z,99240.53
2023-04-14T05:17:55.083Z,99229.84
2023-04-14T05:20:21.669Z,99231.94
2023-04-14T05:22:48.208Z,99233.41
2023-04-14T05:25:14.833Z,99239.78
2023-04-14T05:27:41.594Z,99234.50
2023-04-14T05:30:08.722Z,99235.88
2023-04-14T05:32:35.386Z,99238.31
2023-04-14T05:35:02.568Z,99233.28
2023-04-14T05:37:30.149Z,99241.72
2023-04-14T05:39:56.808Z,99238.75
2023-04-14T05:42:23.646Z,99240.13
2023-04-14T05:44:50.296Z,99241.66
2023-04-14T05:47:16.871Z,99245.25
2023-04-14T05:49:43.449Z,99253.34
2023-04-14T05:52:10.054Z,99246.38
2023-04-14T05:54:36.835Z,99254.38
2023-04-14T05:57:03.611Z,99250.97
2023-04-14T05:59:30.304Z,99257.53
2023-04-14T06:01:57.014Z,99261.56
2023-04-14T06:04:23.837Z,99266.75
2023-04-14T06:06:50.923Z,99273.34
2023-04-14T06:09:17.858Z,99264.69
2023-04-14T06:11:44.436Z,99261.44
2023-04-14T06:14:11.073Z,99263.66
2023-04-14T06:16:37.801Z,99260.66
2023-04-14T06:19:04.644Z,99260.81
2023-04-14T06:21:31.891Z,99255.88
2023-04-14T06:23:58.624Z,99258.59
2023-04-14T06:26:25.846Z,99255.97
2023-04-14T06:28:52.561Z,99260.03
2023-04-14T06:31:19.364Z,99262.22
2023-04-14T06:33:46.158Z,99265.72
2023-04-14T06:36:13.917Z,99259.22
2023-04-14T06:38:40.500Z,99262.72
2023-04-14T06:41:07.176Z,99256.34
2023-04-14T06:43:33.844Z,99259.28
2023-04-14T06:46:00.897Z,99254.25
2023-04-14T06:48:28.153Z,99248.59
2023-04-14T06:50:56.070Z,99242.50
2023-04-14T06:53:23.607Z,99248.06
2023-04-14T06:55:59.616Z,99243.97
2023-04-14T06:58:27.901Z,99230.50
2023-04-14T07:00:58.781Z,99225.81
2023-04-14T07:03:26.060Z,99225.94
2023-04-14T07:05:53.355Z,99221.25
2023-04-14T07:08:21.113Z,99212.94
2023-04-14T07:10:48.249Z,99217.75
2023-04-14T07:13:14.883Z,99216.28
2023-04-14T07:15:45.967Z,99220.25
2023-04-14T07:18:12.639Z,99215.41
2023-04-14T07:20:39.293Z,99208.41
2023-04-14T07:23:06.035Z,99208.69
2023-04-14T07:25:35.780Z,99202.06
2023-04-14T07:28:04.144Z,99195.63
2023-04-14T07:30:31.784Z,99195.31
2023-04-14T07:32:58.719Z,99193.50
2023-04-14T07:35:26.286Z,99190.78
2023-04-14T07:37:52.944Z,99184.81
2023-04-14T07:40:19.905Z,99185.72
2023-04-14T07:42:49.544Z,99195.88
2023-04-14T07:45:16.359Z,99193.31
2023-04-14T07:47:43.016Z,99194.28
2023-04-14T07:50:10.164Z,99195.50
2023-04-14T07:52:37.169Z,99186.88
2023-04-14T07:55:04.416Z,99193.25
2023-04-14T07:57:34.023Z,99191.31
2023-04-14T08:00:00.658Z,99195.81
2023-04-14T08:02:27.422Z,99187.94
2023-04-14T08:04:54.286Z,99191.28
2023-04-14T08:07:21.021Z,99181.25
2023-04-14T08:09:49.284Z,99178.66
2023-04-14T08:12:16.249Z,99173.34
2023-04-14T08:14:43.150Z,99165.81
2023-04-14T08:17:09.797Z,99166.19
2023-04-14T08:19:37.050Z,99166.28
2023-04-14T08:22:03.595Z,99159.28
2023-04-14T08:24:30.336Z,99164.16
2023-04-14T08:26:57.632Z,99161.38
2023-04-14T08:29:24.169Z,99160.44
2023-04-14T08:31:51.096Z,99160.19
2023-04-14T08:34:23.816Z,99157.63
2023-04-14T08:36:55.004Z,99157.22
2023-04-14T08:39:21.594Z,99151.97
2023-04-14T08:41:50.496Z,99157.72
2023-04-14T08:44:17.459Z,99151.50
2023-04-14T08:46:45.671Z,99154.28
2023-04-14T08:49:18.056Z,99145.97
2023-04-14T08:51:46.078Z,99153.59
2023-04-14T08:54:12.920Z,99142.00
2023-04-14T08:56:41.987Z,99136.63
2023-04-14T08:59:10.721Z,99138.53
2023-04-14T09:01:39.063Z,99134.19
2023-04-14T09:04:06.853Z,99139.13
2023-04-14T09:06:34.709Z,99128.25
2023-04-14T09:09:06.995Z,99138.31
2023-04-14T09:11:33.639Z,99144.38
2023-04-14T09:14:01.705Z,99140.75
2023-04-14T09:16:29.275Z,99141.50
2023-04-14T09:18:58.487Z,99130.19
2023-04-14T09:21:52.501Z,99140.06
2023-04-14T09:24:23.808Z,99134.75
2023-04-14T09:26:53.256Z,99141.88
2023-04-14T09:29:19.808Z,99135.56
2023-04-14T09:31:47.247Z,99136.47
2023-04-14T09:34:21.084Z,99133.94
2023-04-14T09:37:05.295Z,99134.13
2023-04-14T09:39:36.780Z,99133.63
2023-04-14T09:42:04.260Z,99129.28
2023-04-14T09:44:30.937Z,99114.31
2023-04-14T09:47:05.875Z,99111.78
2023-04-14T09:49:33.237Z,99117.00
2023-04-14T09:52:09.494Z,99118.06
2023-04-14T09:54:36.237Z,99107.31
2023-04-14T09:57:03.113Z,99104.53
2023-04-14T09:59:36.908Z,99101.22
2023-04-14T10:02:06.101Z,99096.72
2023-04-14T10:04:33.179Z,99094.22
2023-04-14T10:07:00.234Z,99084.69
2023-04-14T10:09:29.278Z,99088.97
2023-04-14T10:12:15.626Z,99091.72
2023-04-14T10:14:43.588Z,99088.66
2023-04-14T10:17:11.421Z,99085.75
2023-04-14T10:19:38.833Z,99073.84
2023-04-14T10:22:06.434Z,99074.97
2023-04-14T10:24:33.271Z,99074.63
2023-04-14T10:27:03.023Z,99067.63
2023-04-14T10:29:30.982Z,99064.53
2023-04-14T10:32:09.757Z,99066.00
2023-04-14T10:34:40.027Z,99055.69
2023-04-14T10:37:15.420Z,99058.63
2023-04-14T10:39:43.036Z,99058.81
2023-04-14T10:42:09.811Z,99044.81
2023-04-14T10:44:37.460Z,99037.44
2023-04-14T10:47:07.768Z,99025.44
2023-04-14T10:49:37.116Z,99037.56
2023-04-14T10:52:13.728Z,99035.69
2023-04-14T10:54:53.399Z,99036.84
2023-04-14T10:57:24.704Z,99032.25
2023-04-14T10:59:57.229Z,99023.47
2023-04-14T11:02:34.771Z,99017.75
2023-04-14T11:05:06.836Z,99025.19
2023-04-14T11:07:47.596Z,99018.28
2023-04-14T11:10:17.022Z,99017.31
2023-04-14T11:12:44.489Z,99015.56
2023-04-14T11:15:11.722Z,98995.75
2023-04-14T11:17:43.276Z,99003.66
2023-04-14T11:20:23.145Z,99004.16
2023-04-14T11:22:52.682Z,99003.34
2023-04-14T11:25:24.129Z,98996.19
2023-04-14T11:27:52.496Z,98991.16
2023-04-14T11:30:21.252Z,98989.56
2023-04-14T11:32:52.624Z,98979.63
2023-04-14T11:35:20.963Z,98975.47
2023-04-14T11:37:47.631Z,98969.38
2023-04-14T11:40:15.931Z,98965.03
2023-04-14T11:42:49.238Z,98944.56
2023-04-14T11:45:16.349Z,98947.00
2023-04-14T11:48:02.515Z,98938.28
2023-04-14T11:50:34.786Z,98929.19
2023-04-14T11:53:02.996Z,98931.34
2023-04-14T11:55:30.118Z,98932.69
2023-04-14T11:57:57.976Z,98924.28
2023-04-14T12:00:24.813Z,98922.22
2023-04-14T12:02:51.801Z,98931.09
2023-04-14T12:05:25.526Z,98928.66
2023-04-14T12:07:59.214Z,98928.94
2023-04-14T12:10:26.861Z,98928.84
2023-04-14T12:13:10.586Z,98928.66
2023-04-14T12:15:39.202Z,98917.53
2023-04-14T12:18:08.205Z,98919.91
2023-04-14T12:20:43.237Z,98913.03
2023-04-14T12:23:09.860Z,98914.31
2023-04-14T12:25:36.491Z,98907.88
2023-04-14T12:28:06.270Z,98911.91
2023-04-14T12:30:33.871Z,98908.47
2023-04-14T12:33:09.714Z,98894.00
2023-04-14T12:35:36.413Z,98902.50
2023-04-14T12:38:15.270Z,98892.53
2023-04-14T12:40:45.899Z,98899.53
2023-04-14T12:43:13.607Z,98901.34
2023-04-14T12:45:45.081Z,98914.25
2023-04-14T12:48:18.197Z,98907.50
2023-04-14T12:50:45.199Z,98896.78
2023-04-14T12:53:29.027Z,98892.97
2023-04-14T12:56:16.584Z,98905.16
2023-04-14T12:58:47.094Z,98897.38
2023-04-14T13:01:16.628Z,98894.81
2023-04-14T13:03:50.492Z,98900.72
2023-04-14T13:06:20.082Z,98897.31
2023-04-14T13:08:48.461Z,98900.81
2023-04-14T13:11:16.349Z,98900.09
2023-04-14T13:13:45.536Z,98901.22
2023-04-14T13:16:16.787Z,98895.09
2023-04-14T13:18:45.664Z,98892.13
2023-04-14T13:21:12.608Z,98888.38
2023-04-14T13:23:39.414Z,98882.34
2023-04-14T13:26:06.068Z,98868.41
2023-04-14T13:28:32.599Z,98870.63
2023-04-14T13:30:59.239Z,98870.75
2023-04-14T13:33:26.769Z,98859.91
2023-04-14T13:35:55.561Z,98852.53
2023-04-14T13:38:22.683Z,98842.09
2023-04-14T13:40:49.331Z,98839.94
2023-04-14T13:43:18.670Z,98841.47
2023-04-14T13:45:45.688Z,98841.09
2023-04-14T13:48:12.659Z,98825.63
2023-04-14T13:50:39.198Z,98820.78
2023-04-14T13:53:05.838Z,98825.13
2023-04-14T13:55:32.685Z,98823.34
2023-04-14T13:57:59.255Z,98817.66
2023-04-14T14:00:26.418Z,98815.91
2023-04-14T14:02:53.262Z,98813.13
2023-04-14T14:05:19.998Z,98820.91
2023-04-14T14:07:47.131Z,98811.16
2023-04-14T14:10:13.857Z,98828.47
2023-04-14T14:12:40.383Z,98807.88
2023-04-14T14:15:07.828Z,98804.22
2023-04-14T14:17:34.689Z,98805.69
2023-04-14T14:20:01.521Z,98793.16
2023-04-14T14:22:28.172Z,98796.31
2023-04-14T14:25:06.955Z,98793.91
2023-04-14T14:27:41.954Z,98793.91
2023-04-14T14:30:09.105Z,98785.16
2023-04-14T14:32:39.324Z,98785.84
2023-04-14T14:35:06.314Z,98769.28
2023-04-14T14:37:32.819Z,98768.13
2023-04-14T14:39:59.355Z,98762.28
2023-04-14T14:42:27.024Z,98756.22
2023-04-14T14:44:54.010Z,98751.44
2023-04-14T14:47:20.973Z,98749.00
2023-04-14T14:49:59.005Z,98747.25
2023-04-14T14:52:34.716Z,98747.19
2023-04-14T14:55:01.684Z,98748.88
2023-04-14T14:57:29.326Z,98740.56
2023-04-14T14:59:56.062Z,98740.19
2023-04-14T15:02:23.170Z,98742.91
2023-04-14T15:04:49.995Z,98737.22
2023-04-14T15:07:17.263Z,98731.97
2023-04-14T15:09:46.426Z,98726.47
2023-04-14T15:12:13.067Z,98726.78
2023-04-14T15:14:39.747Z,98724.97
2023-04-14T15:17:06.365Z,98725.06
2023-04-14T15:19:33.078Z,98717.50
2023-04-14T15:22:01.310Z,98717.72
2023-04-14T15:24:28.196Z,98719.66
2023-04-14T15:26:54.710Z,98710.41
2023-04-14T15:29:25.100Z,98705.84
2023-04-14T15:31:51.976Z,98713.53
2023-04-14T15:34:18.881Z,98705.94
2023-04-14T15:36:45.550Z,98703.50
2023-04-14T15:39:12.214Z,98701.06
2023-04-14T15:41:38.751Z,98690.63
2023-04-14T15:44:05.498Z,98693.47
2023-04-14T15:46:32.188Z,98693.75
2023-04-14T15:48:59.043Z,98694.47
2023-04-14T15:51:26.265Z,98688.38
2023-04-14T15:53:53.024Z,98687.88
2023-04-14T15:56:23.304Z,98690.97
2023-04-14T15:58:50.567Z,98688.84
2023-04-14T16:01:17.519Z,98687.41
2023-04-14T16:03:44.212Z,98683.41
2023-04-14T16:06:10.889Z,98677.28
2023-04-14T16:08:37.457Z,98684.59
2023-04-14T16:11:04.080Z,98679.56
2023-04-14T16:13:31.112Z,98678.66
2023-04-14T16:15:58.509Z,98672.84
2023-04-14T16:18:25.144Z,98680.38
2023-04-14T16:20:51.719Z,98678.28
2023-04-14T16:23:18.395Z,98670.91
2023-04-14T16:25:51.098Z,98671.22
2023-04-14T16:28:17.774Z,98670.50
2023-04-14T16:30:45.912Z,98659.31
2023-04-14T16:33:13.007Z,98660.59
2023-04-14T16:35:39.839Z,98657.66
2023-04-14T16:38:08.652Z,98646.66
2023-04-14T16:40:36.086Z,98635.84
2023-04-14T16:43:03.291Z,98631.94
2023-04-14T16:45:33.403Z,98634.59
2023-04-14T16:48:00.204Z,98631.44
2023-04-14T16:50:27.533Z,98632.59
2023-04-14T16:52:54.285Z,98633.22
2023-04-14T16:55:21.141Z,98632.97
2023-04-14T16:57:47.737Z,98632.59
2023-04-14T17:00:14.756Z,98623.81
2023-04-14T17:02:41.495Z,98625.13
2023-04-14T17:05:10.246Z,98631.22
2023-04-14T17:07:37.109Z,98628.50
2023-04-14T17:10:03.802Z,98632.84
2023-04-14T17:12:30.339Z,98628.59
2023-04-14T17:14:56.989Z,98627.03
2023-04-14T17:17:23.520Z,98624.16
2023-04-14T17:19:50.210Z,98622.44
2023-04-14T17:22:17.030Z,98618.91
2023-04-14T17:24:45.684Z,98616.81
2023-04-14T17:27:12.632Z,98617.59
2023-04-14T17:29:41.171Z,98625.28
2023-04-14T17:32:08.423Z,98619.72
2023-04-14T17:34:35.141Z,98632.44
2023-04-14T17:37:02.238Z,98630.53
2023-04-14T17:39:28.807Z,98636.22
2023-04-14T17:41:56.770Z,98633.84
2023-04-14T17:44:41.466Z,98642.53
2023-04-14T17:47:15.530Z,98640.00
2023-04-14T17:49:42.942Z,98643.78
2023-04-14T17:52:10.954Z,98645.03
2023-04-14T17:54:37.541Z,98638.00
2023-04-14T17:57:04.507Z,98635.53
2023-04-14T17:59:31.682Z,98642.16
2023-04-14T18:01:58.655Z,98639.16
2023-04-14T18:04:25.591Z,98637.72
2023-04-14T18:06:52.211Z,98648.63
2023-04-14T18:09:18.711Z,98640.91
2023-04-14T18:11:45.283Z,98646.34
2023-04-14T18:14:11.859Z,98635.13
2023-04-14T18:16:39.029Z,98640.28
2023-04-14T18:19:06.048Z,98631.09
2023-04-14T18:21:32.577Z,98637.13
2023-04-14T18:26:29.964Z,98625.94
2023-04-14T18:28:56.872Z,98629.13
2023-04-14T18:31:23.702Z,98628.94
2023-04-14T18:33:51.059Z,98631.81
2023-04-14T18:36:17.683Z,98623.84
2023-04-14T18:38:44.189Z,98638.75
2023-04-14T18:41:11.167Z,98640.28
2023-04-14T18:43:38.043Z,98649.78
2023-04-14T18:46:04.595Z,98645.22
2023-04-14T18:48:31.843Z,98640.50
2023-04-14T18:51:01.962Z,98656.41
2023-04-14T18:53:28.697Z,98652.41
2023-04-14T18:55:55.406Z,98642.69
2023-04-14T18:58:22.936Z,98647.22
2023-04-14T19:00:49.648Z,98648.34
2023-04-14T19:03:17.013Z,98645.53
2023-04-14T19:05:44.176Z,98655.88
2023-04-14T19:08:10.951Z,98659.00
2023-04-14T19:10:37.627Z,98662.81
2023-04-14T19:13:04.406Z,98659.50
2023-04-14T19:15:31.163Z,98667.25
2023-04-14T19:17:57.852Z,98670.69
2023-04-14T19:20:25.409Z,98665.78
2023-04-14T19:22:51.933Z,98676.88
2023-04-14T19:25:18.569Z,98679.16
2023-04-14T19:27:45.322Z,98692.94
2023-04-14T19:30:12.451Z,98689.19
2023-04-14T19:32:39.158Z,98701.69
2023-04-14T19:35:07.794Z,98697.13
2023-04-14T19:37:35.665Z,98707.66
2023-04-14T19:40:06.090Z,98706.00
2023-04-14T19:42:33.432Z,98705.78
2023-04-14T19:45:00.596Z,98708.91
2023-04-14T19:47:27.648Z,98705.78
2023-04-14T19:49:55.233Z,98712.84
2023-04-14T19:52:22.494Z,98711.13
2023-04-14T19:54:50.293Z,98711.53
2023-04-14T19:57:17.053Z,98722.94
2023-04-14T19:59:44.376Z,98715.38
2023-04-14T20:02:13.281Z,98716.59
2023-04-14T20:04:40.418Z,98726.91
2023-04-14T20:07:07.358Z,98722.22
2023-04-14T20:09:33.901Z,98723.72
2023-04-14T20:12:02.409Z,98724.34
2023-04-14T20:14:29.400Z,98733.66
2023-04-14T20:16:56.630Z,98733.16
2023-04-14T20:19:24.057Z,98739.25
2023-04-14T20:21:51.098Z,98743.63
2023-04-14T20:24:17.995Z,98742.19
2023-04-14T20:26:45.183Z,98742.56
2023-04-14T20:29:12.337Z,98743.06
2023-04-14T20:31:39.759Z,98746.75
2023-04-14T20:34:06.506Z,98757.22
2023-04-14T20:36:36.058Z,98750.81
2023-04-14T20:39:06.190Z,98750.16
2023-04-14T20:41:34.021Z,98749.84
2023-04-14T20:44:01.560Z,98753.69
2023-04-14T20:46:28.939Z,98755.88
2023-04-14T20:48:56.717Z,98753.94
2023-04-14T20:51:23.822Z,98757.56
2023-04-14T20:53:50.877Z,98757.91
2023-04-14T20:56:17.834Z,98762.66
2023-04-14T20:58:45.660Z,98760.72
2023-04-14T21:01:12.460Z,98760.84
2023-04-14T21:03:39.625Z,98765.94
2023-04-14T21:06:06.772Z,98768.22
2023-04-14T21:08:33.400Z,98777.97
2023-04-14T21:11:15.112Z,98774.75
2023-04-14T21:15:28.566Z,98767.00
2023-04-14T21:16:30.150Z,98779.53
2023-04-14T21:18:57.440Z,98781.66
2023-04-14T21:21:24.174Z,98781.22
2023-04-14T21:23:50.872Z,98786.03
2023-04-14T21:26:17.944Z,98788.69
2023-04-14T21:28:44.581Z,98780.94
2023-04-14T21:31:11.489Z,98785.31
2023-04-14T21:33:41.608Z,98779.31
2023-04-14T21:36:09.867Z,98782.09
2023-04-14T21:38:37.876Z,98783.94
2023-04-14T21:41:04.901Z,98782.22
2023-04-14T21:43:32.577Z,98779.75
2023-04-14T21:45:59.350Z,98786.75
2023-04-14T21:48:26.188Z,98786.63
2023-04-14T21:50:52.741Z,98782.97
2023-04-14T21:53:19.529Z,98796.16
2023-04-14T21:55:46.907Z,98790.31
2023-04-14T21:58:13.581Z,98785.13
2023-04-14T22:00:41.750Z,98789.16
2023-04-14T22:03:08.530Z,98786.88
2023-04-14T22:05:35.225Z,98795.84
2023-04-14T22:08:01.810Z,98791.50
2023-04-14T22:10:32.265Z,98795.66
2023-04-14T22:13:00.515Z,98791.31
2023-04-14T22:15:27.624Z,98795.22
2023-04-14T22:17:54.201Z,98805.44
2023-04-14T22:20:22.922Z,98810.34
2023-04-14T22:22:49.530Z,98809.47
2023-04-14T22:25:16.733Z,98814.81
2023-04-14T22:27:43.370Z,98803.06
2023-04-14T22:30:10.972Z,98810.00
2023-04-14T22:32:37.752Z,98817.63
2023-04-14T22:35:05.055Z,98813.25
2023-04-14T22:37:31.924Z,98814.69
2023-04-14T22:39:59.984Z,98820.59
2023-04-14T22:42:27.490Z,98808.06
2023-04-14T22:44:54.568Z,98819.66
2023-04-14T22:47:21.482Z,98827.28
2023-04-14T22:49:47.991Z,98828.66
2023-04-14T22:52:14.581Z,98831.56
2023-04-14T22:54:41.799Z,98841.59
2023-04-14T22:57:09.227Z,98829.38
2023-04-14T22:59:38.915Z,98835.31
2023-04-14T23:02:05.680Z,98840.53
2023-04-14T23:04:32.759Z,98852.00
2023-04-14T23:06:59.748Z,98843.00
2023-04-14T23:09:30.423Z,98844.09
2023-04-14T23:12:02.054Z,98856.09
2023-04-14T23:14:28.767Z,98847.53
2023-04-14T23:16:55.370Z,98848.63
2023-04-14T23:19:22.188Z,98855.91
2023-04-14T23:21:48.883Z,98856.75
2023-04-14T23:24:15.373Z,98858.00
2023-04-14T23:26:42.265Z,98858.09
2023-04-14T23:29:08.984Z,98855.31
2023-04-14T23:31:36.001Z,98857.72
2023-04-14T23:34:02.669Z,98854.84
2023-04-14T23:36:29.286Z,98858.09
2023-04-14T23:38:55.855Z,98858.22
2023-04-14T23:41:22.435Z,98860.91
2023-04-14T23:43:49.666Z,98869.50
2023-04-14T23:46:16.392Z,98865.47
2023-04-14T23:48:43.262Z,98866.94
2023-04-14T23:51:16.262Z,98873.47
2023-04-14T23:53:47.780Z,98864.41
2023-04-14T23:56:14.348Z,98870.78
2023-04-14T23:58:40.919Z,98872.59
